sensor_id;sensor_type;location;lat;lon;timestamp;pressure;altitude;pressure_sealevel;temperature;humidity
80869;BME280;70295;40.182;44.498;2023-06-14T00:01:08;89583.38;;;22.43;35.32832
80869;BME280;70295;40.182;44.498;2023-06-14T00:03:08;89581.02;;;22.36;35.29902
80869;BME280;70295;40.182;44.498;2023-06-14T00:05:08;89573.33;;;22.31;35.46699
80869;BME280;70295;40.182;44.498;2023-06-14T00:07:08;89570.17;;;22.3;35.5334
80869;BME280;70295;40.182;44.498;2023-06-14T00:09:08;89570.11;;;22.28;35.37324
80869;BME280;70295;40.182;44.498;2023-06-14T00:11:08;89575.36;;;22.26;35.40547
80869;BME280;70295;40.182;44.498;2023-06-14T00:13:08;89573.98;;;22.25;35.34785
80869;BME280;70295;40.182;44.498;2023-06-14T00:15:08;89581.89;;;22.28;35.36152
80869;BME280;70295;40.182;44.498;2023-06-14T00:17:08;89576.15;;;22.32;35.33027
80869;BME280;70295;40.182;44.498;2023-06-14T00:19:08;89575.76;;;22.36;35.39082
80869;BME280;70295;40.182;44.498;2023-06-14T00:21:08;89573.58;;;22.38;35.57539
80869;BME280;70295;40.182;44.498;2023-06-14T00:23:08;89573.33;;;22.39;35.83809
80869;BME280;70295;40.182;44.498;2023-06-14T00:25:08;89564.66;;;22.39;36.06562
80869;BME280;70295;40.182;44.498;2023-06-14T00:27:08;89559.2;;;22.39;36.14473
80869;BME280;70295;40.182;44.498;2023-06-14T00:29:08;89553.7;;;22.35;36.21016
80869;BME280;70295;40.182;44.498;2023-06-14T00:31:08;89544.16;;;22.31;36.20723
80869;BME280;70295;40.182;44.498;2023-06-14T00:33:08;89537.93;;;22.24;36.22383
80869;BME280;70295;40.182;44.498;2023-06-14T00:35:08;89540.69;;;22.19;36.23164
80869;BME280;70295;40.182;44.498;2023-06-14T00:37:08;89547.86;;;22.2;36.03828
80869;BME280;70295;40.182;44.498;2023-06-14T00:39:08;89556.38;;;22.22;36.04023
80869;BME280;70295;40.182;44.498;2023-06-14T00:41:08;89567.19;;;22.26;36.20332
80869;BME280;70295;40.182;44.498;2023-06-14T00:43:08;89574.34;;;22.3;36.52461
80869;BME280;70295;40.182;44.498;2023-06-14T00:45:08;89584.58;;;22.31;36.94844
80869;BME280;70295;40.182;44.498;2023-06-14T00:47:08;89593.25;;;22.26;37.94648
80869;BME280;70295;40.182;44.498;2023-06-14T00:49:08;89602.82;;;22.22;39.05781
80869;BME280;70295;40.182;44.498;2023-06-14T00:52:45;89612.72;;;22.18;40.21601
80869;BME280;70295;40.182;44.498;2023-06-14T00:54:45;89619.57;;;22.16;40.99922
80869;BME280;70295;40.182;44.498;2023-06-14T00:56:45;89628.83;;;22.16;41.8625
80869;BME280;70295;40.182;44.498;2023-06-14T00:58:45;89630.17;;;22.15;42.53242
80869;BME280;70295;40.182;44.498;2023-06-14T01:00:45;89631.64;;;22.14;43.12324
80869;BME280;70295;40.182;44.498;2023-06-14T01:02:45;89629.95;;;22.13;43.50801
80869;BME280;70295;40.182;44.498;2023-06-14T01:04:48;89628.05;;;22.11;43.78047
80869;BME280;70295;40.182;44.498;2023-06-14T01:08:50;89622.4;;;22.09;44.17598
80869;BME280;70295;40.182;44.498;2023-06-14T01:14:52;89605.95;;;21.96;44.71797
80869;BME280;70295;40.182;44.498;2023-06-14T01:16:52;89604.23;;;21.87;44.73164
80869;BME280;70295;40.182;44.498;2023-06-14T01:18:52;89609.03;;;21.83;44.68281
80869;BME280;70295;40.182;44.498;2023-06-14T01:20:52;89614.8;;;21.83;44.61445
80869;BME280;70295;40.182;44.498;2023-06-14T01:22:52;89619;;;21.83;44.30781
80869;BME280;70295;40.182;44.498;2023-06-14T01:24:52;89619.55;;;21.83;43.75117
80869;BME280;70295;40.182;44.498;2023-06-14T01:26:53;89616.13;;;21.83;43.25117
80869;BME280;70295;40.182;44.498;2023-06-14T01:28:52;89615.38;;;21.83;42.37715
80869;BME280;70295;40.182;44.498;2023-06-14T01:30:52;89614.03;;;21.84;42.00312
80869;BME280;70295;40.182;44.498;2023-06-14T01:32:52;89606.28;;;21.83;41.62715
80869;BME280;70295;40.182;44.498;2023-06-14T01:34:52;89595.41;;;21.83;41.47871
80869;BME280;70295;40.182;44.498;2023-06-14T01:36:52;89591.11;;;21.8;41.39668
80869;BME280;70295;40.182;44.498;2023-06-14T01:38:52;89589.7;;;21.69;41.6584
80869;BME280;70295;40.182;44.498;2023-06-14T01:40:52;89595.75;;;21.57;41.88496
80869;BME280;70295;40.182;44.498;2023-06-14T01:42:52;89594.34;;;21.46;42.01191
80869;BME280;70295;40.182;44.498;2023-06-14T01:44:52;89592.64;;;21.42;41.89473
80869;BME280;70295;40.182;44.498;2023-06-14T01:46:52;89593.27;;;21.36;41.74043
80869;BME280;70295;40.182;44.498;2023-06-14T01:48:52;89598.21;;;21.32;41.6916
80869;BME280;70295;40.182;44.498;2023-06-14T01:50:52;89591.52;;;21.32;41.63398
80869;BME280;70295;40.182;44.498;2023-06-14T01:52:52;89592.39;;;21.35;41.67207
80869;BME280;70295;40.182;44.498;2023-06-14T01:54:52;89589.45;;;21.38;41.77656
80869;BME280;70295;40.182;44.498;2023-06-14T01:56:52;89585.5;;;21.4;41.97187
80869;BME280;70295;40.182;44.498;2023-06-14T01:58:52;89586.23;;;21.35;42.26191
80869;BME280;70295;40.182;44.498;2023-06-14T02:00:52;89580.02;;;21.31;42.53047
80869;BME280;70295;40.182;44.498;2023-06-14T02:02:52;89591.87;;;21.29;42.55195
80869;BME280;70295;40.182;44.498;2023-06-14T02:04:52;89608.53;;;21.32;42.67891
80869;BME280;70295;40.182;44.498;2023-06-14T02:06:52;89627.08;;;21.41;42.57539
80869;BME280;70295;40.182;44.498;2023-06-14T02:08:52;89626.34;;;21.5;42.54805
80869;BME280;70295;40.182;44.498;2023-06-14T02:10:52;89636.91;;;21.54;43.50703
80869;BME280;70295;40.182;44.498;2023-06-14T02:12:52;89641.63;;;21.54;44.16426
80869;BME280;70295;40.182;44.498;2023-06-14T02:14:52;89646.82;;;21.52;44.51484
80869;BME280;70295;40.182;44.498;2023-06-14T02:16:52;89627.48;;;21.46;43.70332
80869;BME280;70295;40.182;44.498;2023-06-14T02:18:52;89598.25;;;21.39;43.19746
80869;BME280;70295;40.182;44.498;2023-06-14T02:20:52;89601.91;;;21.31;42.77949
80869;BME280;70295;40.182;44.498;2023-06-14T02:22:52;89577.92;;;21.19;43.38008
80869;BME280;70295;40.182;44.498;2023-06-14T02:24:52;89570.78;;;21.12;43.06758
80869;BME280;70295;40.182;44.498;2023-06-14T02:26:52;89589.27;;;21.09;42.89375
80869;BME280;70295;40.182;44.498;2023-06-14T02:28:52;89595.38;;;21.1;42.81562
80869;BME280;70295;40.182;44.498;2023-06-14T02:30:52;89575.23;;;21.18;43.01777
80869;BME280;70295;40.182;44.498;2023-06-14T02:32:52;89551.79;;;21.25;42.92207
80869;BME280;70295;40.182;44.498;2023-06-14T02:34:52;89537.48;;;21.25;42.77461
80869;BME280;70295;40.182;44.498;2023-06-14T02:36:52;89541.25;;;21.23;42.68184
80869;BME280;70295;40.182;44.498;2023-06-14T02:38:52;89563.52;;;21.18;42.59687
80869;BME280;70295;40.182;44.498;2023-06-14T02:40:52;89593.53;;;21.13;42.54707
80869;BME280;70295;40.182;44.498;2023-06-14T02:42:52;89616.7;;;21.16;42.35664
80869;BME280;70295;40.182;44.498;2023-06-14T02:44:52;89609.45;;;21.18;42.13203
80869;BME280;70295;40.182;44.498;2023-06-14T02:46:52;89621.5;;;21.22;42.26094
80869;BME280;70295;40.182;44.498;2023-06-14T02:48:52;89638.84;;;21.28;42.98164
80869;BME280;70295;40.182;44.498;2023-06-14T02:50:52;89632.55;;;21.33;43.31465
80869;BME280;70295;40.182;44.498;2023-06-14T02:52:52;89630.56;;;21.38;43.16133
80869;BME280;70295;40.182;44.498;2023-06-14T02:54:52;89628.88;;;21.42;43.16523
80869;BME280;70295;40.182;44.498;2023-06-14T02:56:52;89627.22;;;21.42;43.13203
80869;BME280;70295;40.182;44.498;2023-06-14T02:58:52;89632.51;;;21.44;43.26973
80869;BME280;70295;40.182;44.498;2023-06-14T03:00:52;89641.75;;;21.44;43.55391
80869;BME280;70295;40.182;44.498;2023-06-14T03:02:52;89637.84;;;21.43;43.89277
80869;BME280;70295;40.182;44.498;2023-06-14T03:04:52;89650.72;;;21.37;44.00019
80869;BME280;70295;40.182;44.498;2023-06-14T03:06:52;89647.86;;;21.34;44.15644
80869;BME280;70295;40.182;44.498;2023-06-14T03:08:52;89655.56;;;21.33;44.35859
80869;BME280;70295;40.182;44.498;2023-06-14T03:10:52;89656.77;;;21.31;44.74238
80869;BME280;70295;40.182;44.498;2023-06-14T03:12:52;89674.83;;;21.29;44.88789
80869;BME280;70295;40.182;44.498;2023-06-14T03:14:52;89702.98;;;21.22;45.14082
80869;BME280;70295;40.182;44.498;2023-06-14T03:16:52;89716.76;;;21.16;45.58906
80869;BME280;70295;40.182;44.498;2023-06-14T03:18:52;89717.08;;;21.14;45.87031
80869;BME280;70295;40.182;44.498;2023-06-14T03:20:52;89715.14;;;21.13;46.00508
80869;BME280;70295;40.182;44.498;2023-06-14T03:22:52;89712.2;;;21.11;46.11641
80869;BME280;70295;40.182;44.498;2023-06-14T03:24:52;89712.61;;;21.08;46.33906
80869;BME280;70295;40.182;44.498;2023-06-14T03:26:52;89713.64;;;21.06;46.54121
80869;BME280;70295;40.182;44.498;2023-06-14T03:28:52;89718.84;;;21.07;46.76875
80869;BME280;70295;40.182;44.498;2023-06-14T03:30:52;89716.36;;;21.08;46.98555
80869;BME280;70295;40.182;44.498;2023-06-14T03:32:52;89711.98;;;21.09;47.01973
80869;BME280;70295;40.182;44.498;2023-06-14T03:34:52;89701.58;;;21.08;47.09785
80869;BME280;70295;40.182;44.498;2023-06-14T03:36:52;89687.84;;;21.05;47.2082
80869;BME280;70295;40.182;44.498;2023-06-14T03:38:52;89685.9;;;20.96;47.44746
80869;BME280;70295;40.182;44.498;2023-06-14T03:40:52;89668.12;;;20.82;47.7043
80869;BME280;70295;40.182;44.498;2023-06-14T03:42:52;89641.69;;;20.77;47.75605
80869;BME280;70295;40.182;44.498;2023-06-14T03:44:52;89633.8;;;20.76;47.71992
80869;BME280;70295;40.182;44.498;2023-06-14T03:46:52;89618.84;;;20.8;47.45332
80869;BME280;70295;40.182;44.498;2023-06-14T03:48:52;89605.93;;;20.84;47.47969
80869;BME280;70295;40.182;44.498;2023-06-14T03:50:52;89596.14;;;20.79;47.73555
80869;BME280;70295;40.182;44.498;2023-06-14T03:52:52;89595.39;;;20.71;47.52266
80869;BME280;70295;40.182;44.498;2023-06-14T03:54:52;89600.14;;;20.67;46.7043
80869;BME280;70295;40.182;44.498;2023-06-14T03:56:52;89606.1;;;20.73;45.2375
80869;BME280;70295;40.182;44.498;2023-06-14T03:58:52;89609.45;;;20.85;44.19746
80869;BME280;70295;40.182;44.498;2023-06-14T04:00:52;89617.14;;;20.95;43.82246
80869;BME280;70295;40.182;44.498;2023-06-14T04:02:52;89627.64;;;21.01;44.05488
80869;BME280;70295;40.182;44.498;2023-06-14T04:04:52;89645.46;;;21.02;44.20332
80869;BME280;70295;40.182;44.498;2023-06-14T04:06:52;89664.56;;;21.09;44.16426
80869;BME280;70295;40.182;44.498;2023-06-14T04:08:52;89674.56;;;21.17;43.99043
80869;BME280;70295;40.182;44.498;2023-06-14T04:10:52;89666.35;;;21.23;45.14277
80869;BME280;70295;40.182;44.498;2023-06-14T04:12:52;89685.8;;;21.22;46.79609
80869;BME280;70295;40.182;44.498;2023-06-14T04:14:52;89696.26;;;21.2;48.30098
80869;BME280;70295;40.182;44.498;2023-06-14T04:16:52;89702.52;;;21.15;49.17891
80869;BME280;70295;40.182;44.498;2023-06-14T04:18:52;89718.17;;;21.11;49.78633
80869;BME280;70295;40.182;44.498;2023-06-14T04:20:52;89742.69;;;21.05;50.02754
80869;BME280;70295;40.182;44.498;2023-06-14T04:22:52;89769.02;;;20.95;50.17402
80869;BME280;70295;40.182;44.498;2023-06-14T04:24:52;89795.38;;;20.9;50.42793
80869;BME280;70295;40.182;44.498;2023-06-14T04:26:51;89814.91;;;20.89;50.46211
80869;BME280;70295;40.182;44.498;2023-06-14T04:28:52;89820.27;;;20.91;50.76973
80869;BME280;70295;40.182;44.498;2023-06-14T04:30:51;89822.91;;;20.83;51.71016
80869;BME280;70295;40.182;44.498;2023-06-14T04:32:52;89827.7;;;20.64;52.21894
80869;BME280;70295;40.182;44.498;2023-06-14T04:34:55;89809.23;;;20.41;53.18476
80869;BME280;70295;40.182;44.498;2023-06-14T04:36:52;89806.91;;;20.35;53.67402
80869;BME280;70295;40.182;44.498;2023-06-14T04:38:52;89805.86;;;20.32;53.58027
80869;BME280;70295;40.182;44.498;2023-06-14T04:40:52;89818.88;;;20.29;53.63203
80869;BME280;70295;40.182;44.498;2023-06-14T04:42:52;89829.25;;;20.28;54.00312
80869;BME280;70295;40.182;44.498;2023-06-14T04:44:52;89842.56;;;20.29;54.35469
80869;BME280;70295;40.182;44.498;2023-06-14T04:46:52;89848.53;;;20.28;54.02754
80869;BME280;70295;40.182;44.498;2023-06-14T04:48:52;89857.88;;;20.29;53.62226
80869;BME280;70295;40.182;44.498;2023-06-14T04:50:52;89870.64;;;20.33;53.37812
80869;BME280;70295;40.182;44.498;2023-06-14T04:52:52;89890.49;;;20.4;53.38594
80869;BME280;70295;40.182;44.498;2023-06-14T04:54:52;89904.44;;;20.46;53.50703
80869;BME280;70295;40.182;44.498;2023-06-14T04:56:52;89912.77;;;20.43;53.61543
80869;BME280;70295;40.182;44.498;2023-06-14T04:58:52;89920.39;;;20.33;54.15742
80869;BME280;70295;40.182;44.498;2023-06-14T05:00:52;89928.42;;;20.32;54.58516
80869;BME280;70295;40.182;44.498;2023-06-14T05:02:52;89929.73;;;20.34;54.76777
80869;BME280;70295;40.182;44.498;2023-06-14T05:04:52;89935.57;;;20.36;54.6916
80869;BME280;70295;40.182;44.498;2023-06-14T05:06:52;89938.58;;;20.37;54.61348
80869;BME280;70295;40.182;44.498;2023-06-14T05:08:52;89944.12;;;20.38;54.61543
80869;BME280;70295;40.182;44.498;2023-06-14T05:10:52;89947.8;;;20.37;54.42109
80869;BME280;70295;40.182;44.498;2023-06-14T05:12:52;89937.27;;;20.38;54.02754
80869;BME280;70295;40.182;44.498;2023-06-14T05:14:52;89934.19;;;20.38;54.38887
80869;BME280;70295;40.182;44.498;2023-06-14T05:16:52;89910.5;;;20.38;54.27559
80869;BME280;70295;40.182;44.498;2023-06-14T05:18:52;89896.81;;;20.37;53.48457
80869;BME280;70295;40.182;44.498;2023-06-14T05:20:52;89887.13;;;20.36;53.22383
80869;BME280;70295;40.182;44.498;2023-06-14T05:22:54;89885.39;;;20.32;52.84687
80869;BME280;70295;40.182;44.498;2023-06-14T05:24:52;89878.8;;;20.27;52.62519
80869;BME280;70295;40.182;44.498;2023-06-14T05:26:52;89860.2;;;20.21;52.58516
80869;BME280;70295;40.182;44.498;2023-06-14T05:28:52;89858.11;;;20.16;52.24043
80869;BME280;70295;40.182;44.498;2023-06-14T05:30:52;89852.23;;;20.11;52.24531
80869;BME280;70295;40.182;44.498;2023-06-14T05:32:52;89837.3;;;20.07;52.33125
80869;BME280;70295;40.182;44.498;2023-06-14T05:34:52;89832.11;;;19.97;52.12715
80869;BME280;70295;40.182;44.498;2023-06-14T05:36:52;89831.31;;;19.86;52.14766
80869;BME280;70295;40.182;44.498;2023-06-14T05:38:52;89812.91;;;19.8;52.44551
80869;BME280;70295;40.182;44.498;2023-06-14T05:40:52;89805.89;;;19.79;52.23066
80869;BME280;70295;40.182;44.498;2023-06-14T05:42:52;89796.75;;;19.78;52.41035
80869;BME280;70295;40.182;44.498;2023-06-14T05:44:52;89792.05;;;19.78;52.42109
80869;BME280;70295;40.182;44.498;2023-06-14T05:46:52;89805.79;;;19.75;52.32637
80869;BME280;70295;40.182;44.498;2023-06-14T05:48:52;89815.83;;;19.76;52.18184
80869;BME280;70295;40.182;44.498;2023-06-14T05:50:52;89804.04;;;19.83;51.92012
80869;BME280;70295;40.182;44.498;2023-06-14T05:52:52;89802.39;;;19.93;51.46797
80869;BME280;70295;40.182;44.498;2023-06-14T05:54:52;89810.67;;;19.96;51.03144
80869;BME280;70295;40.182;44.498;2023-06-14T05:56:52;89814.2;;;20.01;50.63105
80869;BME280;70295;40.182;44.498;2023-06-14T05:58:52;89819.5;;;20.03;50.56562
80869;BME280;70295;40.182;44.498;2023-06-14T06:00:52;89840.38;;;20.04;50.57832
80869;BME280;70295;40.182;44.498;2023-06-14T06:02:52;89841.2;;;19.96;51.5168
80869;BME280;70295;40.182;44.498;2023-06-14T06:04:52;89837.38;;;19.91;52.13105
80869;BME280;70295;40.182;44.498;2023-06-14T06:06:52;89845.58;;;19.86;52.2834
80869;BME280;70295;40.182;44.498;2023-06-14T06:08:51;89822.98;;;19.74;52.87812
80869;BME280;70295;40.182;44.498;2023-06-14T06:10:52;89805.55;;;19.6;53.60469
80869;BME280;70295;40.182;44.498;2023-06-14T06:12:52;89811.01;;;19.41;54.5959
80869;BME280;70295;40.182;44.498;2023-06-14T06:14:52;89785.78;;;19.21;55.04316
80869;BME280;70295;40.182;44.498;2023-06-14T06:16:52;89795.1;;;19.06;55.2834
80869;BME280;70295;40.182;44.498;2023-06-14T06:18:51;89790.05;;;19.06;55.15937
80869;BME280;70295;40.182;44.498;2023-06-14T06:20:52;89799.06;;;19.07;55.08125
80869;BME280;70295;40.182;44.498;2023-06-14T06:22:52;89810.01;;;19.01;55.35469
80869;BME280;70295;40.182;44.498;2023-06-14T06:24:52;89815.7;;;19;55.4875
80869;BME280;70295;40.182;44.498;2023-06-14T06:26:52;89803.11;;;18.93;55.55781
80869;BME280;70295;40.182;44.498;2023-06-14T06:28:52;89788.55;;;18.95;55.78535
80869;BME280;70295;40.182;44.498;2023-06-14T06:30:52;89777.92;;;18.91;55.85957
80869;BME280;70295;40.182;44.498;2023-06-14T06:32:52;89774.69;;;18.85;56.21113
80869;BME280;70295;40.182;44.498;2023-06-14T06:34:51;89765.52;;;18.71;56.7209
80869;BME280;70295;40.182;44.498;2023-06-14T06:36:52;89759.27;;;18.73;56.48848
80869;BME280;70295;40.182;44.498;2023-06-14T06:38:52;89773.14;;;18.77;56.48262
80869;BME280;70295;40.182;44.498;2023-06-14T06:40:52;89765.39;;;18.77;56.24531
80869;BME280;70295;40.182;44.498;2023-06-14T06:42:52;89757.93;;;18.78;55.86543
80869;BME280;70295;40.182;44.498;2023-06-14T06:44:51;89747.41;;;18.85;55.3918
80869;BME280;70295;40.182;44.498;2023-06-14T06:46:52;89745.3;;;18.88;55.12422
80869;BME280;70295;40.182;44.498;2023-06-14T06:48:52;89742.58;;;18.85;54.10957
80869;BME280;70295;40.182;44.498;2023-06-14T06:50:51;89778.48;;;18.91;53.22773
80869;BME280;70295;40.182;44.498;2023-06-14T06:52:52;89755.91;;;18.94;52.47773
80869;BME280;70295;40.182;44.498;2023-06-14T06:54:52;89771.98;;;19.07;52.19941
80869;BME280;70295;40.182;44.498;2023-06-14T06:56:52;89766.42;;;19.19;51.78633
80869;BME280;70295;40.182;44.498;2023-06-14T06:58:52;89753.52;;;19.33;51.74726
80869;BME280;70295;40.182;44.498;2023-06-14T07:00:51;89758.39;;;19.37;51.12031
80869;BME280;70295;40.182;44.498;2023-06-14T07:02:52;89744.77;;;19.44;50.92598
80869;BME280;70295;40.182;44.498;2023-06-14T07:04:51;89754.52;;;19.56;50.18476
80869;BME280;70295;40.182;44.498;2023-06-14T07:06:51;89760.8;;;19.69;49.29707
80869;BME280;70295;40.182;44.498;2023-06-14T07:08:52;89751.87;;;19.89;48.94648
80869;BME280;70295;40.182;44.498;2023-06-14T07:10:51;89763.03;;;20.1;48.82344
80869;BME280;70295;40.182;44.498;2023-06-14T07:12:52;89750.47;;;20.24;48.42207
80869;BME280;70295;40.182;44.498;2023-06-14T07:14:52;89758.81;;;20.35;48.37617
80869;BME280;70295;40.182;44.498;2023-06-14T07:16:51;89769.19;;;20.43;47.85371
80869;BME280;70295;40.182;44.498;2023-06-14T07:18:51;89774.41;;;20.49;47.46406
80869;BME280;70295;40.182;44.498;2023-06-14T07:20:51;89773.82;;;20.55;47.12031
80869;BME280;70295;40.182;44.498;2023-06-14T07:22:51;89781.15;;;20.63;46.96016
80869;BME280;70295;40.182;44.498;2023-06-14T07:24:51;89782.61;;;20.71;46.69648
80869;BME280;70295;40.182;44.498;2023-06-14T07:26:51;89787.08;;;20.77;46.38594
80869;BME280;70295;40.182;44.498;2023-06-14T07:28:52;89781.67;;;20.83;46.18769
80869;BME280;70295;40.182;44.498;2023-06-14T07:30:52;89781.68;;;20.88;46.13691
80869;BME280;70295;40.182;44.498;2023-06-14T07:32:52;89768.69;;;20.91;46.07344
80869;BME280;70295;40.182;44.498;2023-06-14T07:34:52;89752.97;;;20.91;45.8459
80869;BME280;70295;40.182;44.498;2023-06-14T07:36:51;89746.14;;;20.9;45.41426
80869;BME280;70295;40.182;44.498;2023-06-14T07:38:52;89764.34;;;20.91;44.87226
80869;BME280;70295;40.182;44.498;2023-06-14T07:40:52;89773.35;;;20.95;44.75117
80869;BME280;70295;40.182;44.498;2023-06-14T07:42:51;89773.11;;;20.98;44.68672
80869;BME280;70295;40.182;44.498;2023-06-14T07:44:52;89747.66;;;21;44.41621
80869;BME280;70295;40.182;44.498;2023-06-14T07:46:51;89732.18;;;21.02;44.23555
80869;BME280;70295;40.182;44.498;2023-06-14T07:48:51;89725.2;;;21.04;44.26094
80869;BME280;70295;40.182;44.498;2023-06-14T07:50:52;89726.77;;;21.04;43.52461
80869;BME280;70295;40.182;44.498;2023-06-14T07:52:51;89720.61;;;21.04;43.46797
80869;BME280;70295;40.182;44.498;2023-06-14T07:54:52;89716.14;;;21.06;43.7082
80869;BME280;70295;40.182;44.498;2023-06-14T07:56:51;89720.57;;;21.08;43.61836
80869;BME280;70295;40.182;44.498;2023-06-14T07:58:51;89717.98;;;21.09;43.44941
80869;BME280;70295;40.182;44.498;2023-06-14T08:00:51;89722.48;;;21.09;43.40449
80869;BME280;70295;40.182;44.498;2023-06-14T08:02:51;89725.67;;;21.1;43.23652
80869;BME280;70295;40.182;44.498;2023-06-14T08:04:51;89720.42;;;21.13;43.4084
80869;BME280;70295;40.182;44.498;2023-06-14T08:06:52;89720.45;;;21.15;43.03633
80869;BME280;70295;40.182;44.498;2023-06-14T08:08:51;89720.78;;;21.16;42.86738
80869;BME280;70295;40.182;44.498;2023-06-14T08:10:52;89701.73;;;21.16;42.20918
80869;BME280;70295;40.182;44.498;2023-06-14T08:12:51;89698.84;;;21.19;42.23457
80869;BME280;70295;40.182;44.498;2023-06-14T08:14:51;89699;;;21.22;41.6584
80869;BME280;70295;40.182;44.498;2023-06-14T08:16:51;89696.28;;;21.27;41.67598
80869;BME280;70295;40.182;44.498;2023-06-14T08:18:51;89701.77;;;21.38;41.73066
80869;BME280;70295;40.182;44.498;2023-06-14T08:20:52;89711.92;;;21.48;41.68379
80869;BME280;70295;40.182;44.498;2023-06-14T08:22:51;89711.11;;;21.58;41.27266
80869;BME280;70295;40.182;44.498;2023-06-14T08:24:51;89712.05;;;21.68;41.09004
80869;BME280;70295;40.182;44.498;2023-06-14T08:26:52;89707.94;;;21.78;41.66816
80869;BME280;70295;40.182;44.498;2023-06-14T08:28:51;89712.84;;;21.89;41.40449
80869;BME280;70295;40.182;44.498;2023-06-14T08:30:51;89700.91;;;21.96;40.58223
80869;BME280;70295;40.182;44.498;2023-06-14T08:32:51;89706.77;;;22.05;40.84101
80869;BME280;70295;40.182;44.498;2023-06-14T08:34:51;89699.23;;;22.12;40.40254
80869;BME280;70295;40.182;44.498;2023-06-14T08:36:52;89701.19;;;22.18;39.81758
80869;BME280;70295;40.182;44.498;2023-06-14T08:38:51;89695.95;;;22.2;39.48945
80869;BME280;70295;40.182;44.498;2023-06-14T08:40:51;89695.22;;;22.26;39.40254
80869;BME280;70295;40.182;44.498;2023-06-14T08:42:52;89696.52;;;22.31;38.9748
80869;BME280;70295;40.182;44.498;2023-06-14T08:44:51;89695.95;;;22.34;38.5334
80869;BME280;70295;40.182;44.498;2023-06-14T08:46:51;89688.16;;;22.39;38.69746
80869;BME280;70295;40.182;44.498;2023-06-14T08:48:51;89692.39;;;22.46;39.03437
80869;BME280;70295;40.182;44.498;2023-06-14T08:50:51;89693.81;;;22.51;38.04707
80869;BME280;70295;40.182;44.498;2023-06-14T08:52:53;89694.03;;;22.53;37.15937
80869;BME280;70295;40.182;44.498;2023-06-14T08:54:51;89688.05;;;22.56;36.85469
80869;BME280;70295;40.182;44.498;2023-06-14T08:56:51;89697.62;;;22.59;36.82344
80869;BME280;70295;40.182;44.498;2023-06-14T08:58:51;89681.17;;;22.63;36.91719
80869;BME280;70295;40.182;44.498;2023-06-14T09:00:51;89691.7;;;22.68;36.77461
80869;BME280;70295;40.182;44.498;2023-06-14T09:02:52;89681.97;;;22.75;36.60859
80869;BME280;70295;40.182;44.498;2023-06-14T09:04:51;89681.91;;;22.83;36.25019
80869;BME280;70295;40.182;44.498;2023-06-14T09:06:51;89676.98;;;22.91;35.68672
80869;BME280;70295;40.182;44.498;2023-06-14T09:08:52;89677.67;;;22.96;35.00605
80869;BME280;70295;40.182;44.498;2023-06-14T09:10:51;89679.56;;;23.03;35.0793
80869;BME280;70295;40.182;44.498;2023-06-14T09:12:51;89675.25;;;23.1;34.29805
80869;BME280;70295;40.182;44.498;2023-06-14T09:14:51;89672.23;;;23.14;34.175
80869;BME280;70295;40.182;44.498;2023-06-14T09:16:54;89674.8;;;23.19;34.06367
80869;BME280;70295;40.182;44.498;2023-06-14T09:18:51;89664.88;;;23.25;33.81855
80869;BME280;70295;40.182;44.498;2023-06-14T09:20:51;89671.08;;;23.3;33.29609
80869;BME280;70295;40.182;44.498;2023-06-14T09:22:51;89667.36;;;23.31;33.74238
80869;BME280;70295;40.182;44.498;2023-06-14T09:24:51;89669.21;;;23.33;34.68086
80869;BME280;70295;40.182;44.498;2023-06-14T09:26:51;89668.55;;;23.34;35.00312
80869;BME280;70295;40.182;44.498;2023-06-14T09:28:51;89671.84;;;23.37;34.84394
80869;BME280;70295;40.182;44.498;2023-06-14T09:30:51;89669.16;;;23.38;34.97187
80869;BME280;70295;40.182;44.498;2023-06-14T09:32:51;89674.89;;;23.42;34.9748
80869;BME280;70295;40.182;44.498;2023-06-14T09:34:51;89671.45;;;23.44;34.69062
80869;BME280;70295;40.182;44.498;2023-06-14T09:36:51;89669.33;;;23.48;34.17891
80869;BME280;70295;40.182;44.498;2023-06-14T09:38:52;89671.61;;;23.51;33.62129
80869;BME280;70295;40.182;44.498;2023-06-14T09:40:51;89676.89;;;23.56;33.45332
80869;BME280;70295;40.182;44.498;2023-06-14T09:42:51;89675.51;;;23.6;33.21601
80869;BME280;70295;40.182;44.498;2023-06-14T09:44:52;89671.31;;;23.63;32.73848
80869;BME280;70295;40.182;44.498;2023-06-14T09:46:51;89671;;;23.67;32.64961
80869;BME280;70295;40.182;44.498;2023-06-14T09:48:51;89666.56;;;23.71;32.98457
80869;BME280;70295;40.182;44.498;2023-06-14T09:50:51;89668.23;;;23.75;32.88496
80869;BME280;70295;40.182;44.498;2023-06-14T09:52:52;89667.89;;;23.79;32.4875
80869;BME280;70295;40.182;44.498;2023-06-14T09:54:51;89668.36;;;23.83;31.76875
80869;BME280;70295;40.182;44.498;2023-06-14T09:56:51;89661.94;;;23.86;31.66719
80869;BME280;70295;40.182;44.498;2023-06-14T09:58:53;89658.16;;;23.9;30.75508
80869;BME280;70295;40.182;44.498;2023-06-14T10:00:51;89650.36;;;23.92;30.14961
80869;BME280;70295;40.182;44.498;2023-06-14T10:02:53;89644.64;;;23.96;30.09394
80869;BME280;70295;40.182;44.498;2023-06-14T10:04:54;89640.84;;;24;30.0168
80869;BME280;70295;40.182;44.498;2023-06-14T10:06:51;89640.87;;;24.04;29.82539
80869;BME280;70295;40.182;44.498;2023-06-14T10:08:56;89634.88;;;24.09;29.42793
80869;BME280;70295;40.182;44.498;2023-06-14T10:10:51;89634.69;;;24.14;29.23555
80869;BME280;70295;40.182;44.498;2023-06-14T10:12:51;89633.82;;;24.18;28.90547